Time;durP1;ratioP1;P1;durP2;ratioP2;P2;SDS_P1;SDS_P2;PMS_P1;PMS_P2;Temp;Humidity;BMP_temperature;BMP_pressure;BME280_temperature;BME280_humidity;BME280_pressure;Samples;Min_cycle;Max_cycle;Signal;HPM_P1;HPM_P2
2022/10/21 00:01:15;;;;;;;;;;;16.20;99.90;;;;;;4958212;29;20101;-78
2022/10/21 00:03:41;;;;;;;14.43;2.97;;;16.10;99.90;;;;;;4957752;29;20369;-79
2022/10/21 00:06:06;;;;;;;;;;;16.10;99.90;;;;;;4958235;29;20054;-77
2022/10/21 00:08:32;;;;;;;13.88;3.45;;;16.00;99.90;;;;;;4957365;29;19910;-78
2022/10/21 00:11:01;;;;;;;15.20;3.15;;;16.10;99.90;;;;;;4940477;29;20028;-78
2022/10/21 00:13:28;;;;;;;16.20;3.40;;;16.10;99.90;;;;;;4957541;29;20393;-76
2022/10/21 00:16:08;;;;;;;15.90;3.45;;;16.10;99.90;;;;;;4957645;29;20078;-77
2022/10/21 00:18:36;;;;;;;12.90;3.30;;;16.00;99.90;;;;;;4957220;29;20091;-78
2022/10/21 00:21:07;;;;;;;15.50;3.45;;;16.10;99.90;;;;;;4957262;29;20031;-77
2022/10/21 00:23:32;;;;;;;15.77;3.20;;;16.00;99.90;;;;;;4957109;29;20051;-77
2022/10/21 00:25:58;;;;;;;;;;;16.10;99.90;;;;;;4957868;29;20465;-76
2022/10/21 00:28:25;;;;;;;15.27;3.10;;;16.00;99.90;;;;;;4956994;29;19911;-76
2022/10/21 00:30:50;;;;;;;15.73;3.03;;;16.10;99.90;;;;;;4957298;29;20476;-77
2022/10/21 00:33:16;;;;;;;;;;;16.20;99.90;;;;;;4957705;29;20062;-76
2022/10/21 00:35:42;;;;;;;17.30;3.20;;;16.20;99.90;;;;;;4957043;29;20238;-77
2022/10/21 00:38:07;;;;;;;;;;;16.30;99.90;;;;;;4927912;28;20052;-76
2022/10/21 00:40:33;;;;;;;17.65;3.22;;;16.30;99.90;;;;;;4938372;29;20438;-77
2022/10/21 00:42:59;;;;;;;;;;;16.30;99.90;;;;;;4944780;29;20026;-78
2022/10/21 00:45:28;;;;;;;20.15;3.45;;;16.30;99.90;;;;;;4956940;29;19906;-78
2022/10/21 00:48:04;;;;;;;14.77;3.55;;;16.30;99.90;;;;;;4956946;29;20134;-77
2022/10/21 00:50:45;;;;;;;20.08;3.80;;;16.30;99.90;;;;;;4956762;29;20397;-76
2022/10/21 00:53:14;;;;;;;15.90;3.13;;;16.20;99.90;;;;;;4951151;29;20398;-76
2022/10/21 00:55:46;;;;;;;16.30;3.22;;;16.20;99.90;;;;;;4957015;29;20027;-77
2022/10/21 00:58:12;;;;;;;16.33;3.28;;;16.30;99.90;;;;;;4956505;28;20046;-76
2022/10/21 01:00:38;;;;;;;15.18;3.00;;;16.30;99.90;;;;;;4956236;29;20034;-77
2022/10/21 01:03:03;;;;;;;;;;;16.50;99.90;;;;;;4956747;29;20421;-76
2022/10/21 01:05:30;;;;;;;16.88;3.25;;;16.40;99.90;;;;;;4956714;29;19913;-78
2022/10/21 01:07:57;;;;;;;15.40;3.72;;;16.50;99.90;;;;;;4956532;29;20028;-78
2022/10/21 01:10:22;;;;;;;11.27;2.80;;;16.50;99.90;;;;;;4956517;29;20051;-77
2022/10/21 01:13:03;;;;;;;20.48;3.15;;;16.60;99.90;;;;;;4956364;29;20047;-78
2022/10/21 01:15:44;;;;;;;16.95;3.22;;;16.50;99.90;;;;;;4956574;29;20027;-76
2022/10/21 01:18:27;;;;;;;12.57;2.55;;;16.60;99.90;;;;;;4938886;29;20450;-78
2022/10/21 01:20:57;;;;;;;15.95;3.05;;;16.60;99.90;;;;;;4956486;29;20031;-78
2022/10/21 01:23:23;;;;;;;12.82;2.70;;;16.60;99.90;;;;;;4955677;29;20051;-77
2022/10/21 01:26:07;;;;;;;;;;;16.60;99.90;;;;;;4956820;29;20065;-77
2022/10/21 01:29:06;;;;;;;11.13;2.63;;;16.50;99.90;;;;;;4956180;29;20440;-77
2022/10/21 01:32:05;;;;;;;18.77;3.33;;;16.50;99.90;;;;;;4956302;29;20482;-78
2022/10/21 01:34:42;;;;;;;14.43;2.90;;;16.50;99.90;;;;;;4955500;29;20494;-78
2022/10/21 01:37:14;;;;;;;12.60;2.95;;;16.50;99.90;;;;;;4956120;29;20473;-76
2022/10/21 01:39:49;;;;;;;11.02;2.50;;;16.50;99.90;;;;;;4956718;29;20027;-78
2022/10/21 01:42:59;;;;;;;14.57;3.33;;;16.50;99.90;;;;;;4955992;29;20481;-76
2022/10/21 01:45:53;;;;;;;13.70;2.50;;;16.50;99.90;;;;;;4946827;29;20046;-78
2022/10/21 01:48:28;;;;;;;11.93;2.50;;;16.50;99.90;;;;;;4955862;29;20031;-77
2022/10/21 01:51:00;;;;;;;21.38;3.10;;;16.40;99.90;;;;;;4956056;29;20173;-78
2022/10/21 01:53:29;;;;;;;11.98;2.80;;;16.40;99.90;;;;;;4955524;29;20497;-78
2022/10/21 01:55:57;;;;;;;13.57;2.88;;;16.30;99.90;;;;;;4955816;29;20098;-77
2022/10/21 01:58:28;;;;;;;18.02;3.28;;;16.30;99.90;;;;;;4955479;29;20035;-77
2022/10/21 02:00:57;;;;;;;16.92;3.03;;;16.30;99.90;;;;;;4938181;29;20386;-78
2022/10/21 02:03:27;;;;;;;15.88;3.20;;;16.30;99.90;;;;;;4955188;29;20028;-79
2022/10/21 02:05:53;;;;;;;12.68;2.70;;;16.20;99.90;;;;;;4955753;29;20034;-78
2022/10/21 02:08:19;;;;;;;;;;;16.30;99.90;;;;;;4955840;29;20035;-78
2022/10/21 02:10:49;;;;;;;13.38;2.83;;;16.20;99.90;;;;;;4955178;28;19910;-78
2022/10/21 02:13:26;;;;;;;13.43;2.53;;;16.20;99.90;;;;;;4955142;29;20051;-78
2022/10/21 02:15:56;;;;;;;19.45;2.92;;;16.30;99.90;;;;;;4955526;29;20023;-78
2022/10/21 02:18:24;;;;;;;14.48;2.75;;;16.30;99.90;;;;;;4937878;29;20050;-77
2022/10/21 02:20:58;;;;;;;15.18;3.15;;;16.30;99.90;;;;;;4955358;29;20046;-78
2022/10/21 02:23:44;;;;;;;13.52;2.90;;;16.30;99.90;;;;;;4934297;29;20055;-77
2022/10/21 02:26:10;;;;;;;11.13;2.30;;;16.30;99.90;;;;;;4918793;29;20039;-77
2022/10/21 02:28:36;;;;;;;;;;;16.20;99.90;;;;;;4936420;29;20031;-78
2022/10/21 02:31:28;;;;;;;12.18;2.60;;;16.10;99.90;;;;;;4936118;29;19961;-77
2022/10/21 02:34:18;;;;;;;12.77;3.08;;;16.10;99.90;;;;;;4945449;29;20023;-75
2022/10/21 02:37:24;;;;;;;13.75;2.55;;;16.20;99.90;;;;;;4955212;29;20031;-78
2022/10/21 02:39:55;;;;;;;14.57;2.80;;;16.00;99.90;;;;;;4908096;29;20118;-79
2022/10/21 02:42:29;;;;;;;14.20;2.58;;;16.00;99.90;;;;;;4955039;29;20031;-77
2022/10/21 02:44:55;;;;;;;15.65;2.92;;;16.00;99.90;;;;;;4954486;29;20047;-78
2022/10/21 02:47:22;;;;;;;;;;;16.00;99.90;;;;;;4955108;29;20058;-76
2022/10/21 02:49:48;;;;;;;12.23;3.00;;;16.00;99.90;;;;;;4954868;29;19961;-78
2022/10/21 02:52:14;;;;;;;;;;;16.00;99.90;;;;;;4954380;29;20055;-77
2022/10/21 02:54:39;;;;;;;14.77;2.40;;;16.00;99.90;;;;;;4954602;29;19929;-76
2022/10/21 02:57:05;;;;;;;;;;;15.90;99.90;;;;;;4955156;29;20422;-78
2022/10/21 02:59:30;;;;;;;12.48;2.75;;;15.70;99.90;;;;;;4954913;29;20386;-77
2022/10/21 03:01:56;;;;;;;;;;;15.70;99.90;;;;;;4955228;29;20028;-78
2022/10/21 03:04:22;;;;;;;9.82;2.20;;;15.80;99.90;;;;;;4954376;29;19937;-79
2022/10/21 03:06:47;;;;;;;;;;;15.70;99.90;;;;;;4955169;29;20031;-76
2022/10/21 03:09:13;;;;;;;13.63;2.63;;;15.70;99.90;;;;;;4954619;29;20526;-78
2022/10/21 03:11:38;;;;;;;;;;;15.70;99.90;;;;;;4955168;29;20027;-78
2022/10/21 03:14:04;;;;;;;14.32;2.80;;;15.70;99.90;;;;;;4954273;29;19906;-76
2022/10/21 03:16:30;;;;;;;;;;;15.70;99.90;;;;;;4955083;29;20447;-78
2022/10/21 03:18:55;;;;;;;14.80;2.63;;;15.60;99.90;;;;;;4954613;29;19907;-76
2022/10/21 03:21:21;;;;;;;;;;;15.60;99.90;;;;;;4954954;28;20032;-78
2022/10/21 03:23:47;;;;;;;14.35;2.60;;;15.60;99.90;;;;;;4957454;29;19925;-77
2022/10/21 03:26:12;;;;;;;;;;;15.50;99.90;;;;;;4941910;29;20066;-78
2022/10/21 03:28:38;;;;;;;17.48;2.65;;;15.50;99.90;;;;;;4958516;29;19910;-77
2022/10/21 03:31:04;;;;;;;;;;;15.50;99.90;;;;;;4958812;29;20540;-79
2022/10/21 03:33:29;;;;;;;11.10;2.50;;;15.50;99.90;;;;;;4958115;29;20053;-79
2022/10/21 03:35:55;;;;;;;;;;;15.50;99.90;;;;;;4958774;29;20027;-78
2022/10/21 03:38:21;;;;;;;17.45;2.97;;;15.50;99.90;;;;;;4958285;29;19954;-78
2022/10/21 03:40:46;;;;;;;;;;;15.60;99.90;;;;;;4959327;29;20389;-78
2022/10/21 03:43:12;;;;;;;14.85;2.80;;;15.70;99.90;;;;;;4957911;29;19906;-77
2022/10/21 03:45:40;;;;;;;;;;;15.70;99.90;;;;;;4958768;29;20450;-78
2022/10/21 03:48:06;;;;;;;16.83;2.97;;;15.70;99.90;;;;;;4958027;29;19911;-77
2022/10/21 03:50:31;;;;;;;;;;;15.80;99.90;;;;;;4941266;29;20027;-77
2022/10/21 03:52:58;;;;;;;17.45;3.00;;;15.90;99.90;;;;;;4957795;29;19993;-77
2022/10/21 03:55:24;;;;;;;14.50;2.80;;;16.00;99.90;;;;;;4957947;29;20027;-76
2022/10/21 03:57:50;;;;;;;;;;;16.10;99.90;;;;;;4958370;29;20400;-77
2022/10/21 04:00:16;;;;;;;18.48;2.83;;;16.20;99.90;;;;;;4957805;29;19962;-77
2022/10/21 04:02:42;;;;;;;;;;;16.30;99.90;;;;;;4958313;29;20027;-76
2022/10/21 04:05:08;;;;;;;19.60;2.90;;;16.30;99.90;;;;;;4940110;29;19946;-78
2022/10/21 04:07:34;;;;;;;16.95;2.83;;;16.40;99.90;;;;;;4957935;29;20038;-78
2022/10/21 04:09:59;;;;;;;;;;;16.40;99.90;;;;;;4958056;29;20020;-75
2022/10/21 04:12:25;;;;;;;21.55;3.50;;;16.50;99.90;;;;;;4957649;29;19969;-76
2022/10/21 04:14:51;;;;;;;;;;;16.40;99.90;;;;;;4957662;29;20051;-79
2022/10/21 04:17:17;;;;;;;19.52;3.38;;;16.50;99.90;;;;;;4957604;29;20331;-78
2022/10/21 04:19:43;;;;;;;21.77;4.07;;;16.50;99.90;;;;;;4957599;29;20437;-79
2022/10/21 04:22:09;;;;;;;;;;;16.60;99.90;;;;;;4957685;29;20038;-77
2022/10/21 04:24:35;;;;;;;20.77;3.33;;;16.60;99.90;;;;;;4956809;29;19914;-79
2022/10/21 04:27:00;;;;;;;;;;;16.60;99.90;;;;;;4957895;29;20031;-79
2022/10/21 04:29:26;;;;;;;24.70;4.70;;;16.60;99.90;;;;;;4957180;29;19918;-77
2022/10/21 04:31:52;;;;;;;;;;;16.60;99.90;;;;;;4957678;29;20023;-78
2022/10/21 04:34:17;;;;;;;27.58;4.00;;;16.60;99.90;;;;;;4955621;28;20013;-78
2022/10/21 04:36:43;;;;;;;;;;;16.60;99.90;;;;;;4957723;29;20083;-77
2022/10/21 04:39:08;;;;;;;26.65;5.35;;;16.70;99.90;;;;;;4957187;29;19953;-77
2022/10/21 04:41:34;;;;;;;;;;;16.70;99.90;;;;;;4958121;29;20023;-78
2022/10/21 04:44:01;;;;;;;27.33;5.32;;;16.70;99.90;;;;;;4956778;29;20277;-77
2022/10/21 04:46:27;;;;;;;24.63;5.55;;;16.70;99.90;;;;;;4939591;29;20027;-78
2022/10/21 04:48:52;;;;;;;32.00;10.20;;;16.70;99.90;;;;;;4956927;29;20030;-78
2022/10/21 04:51:18;;;;;;;;;;;16.80;99.90;;;;;;4957450;29;20059;-78
2022/10/21 04:53:44;;;;;;;38.03;13.00;;;16.70;99.90;;;;;;4956664;29;19910;-78
2022/10/21 04:56:10;;;;;;;38.97;14.48;;;16.70;99.90;;;;;;4956931;29;20098;-78
2022/10/21 04:58:35;;;;;;;;;;;16.80;99.90;;;;;;4957039;29;20035;-78
2022/10/21 05:01:01;;;;;;;27.67;6.03;;;16.80;99.90;;;;;;4956858;29;19912;-78
2022/10/21 05:03:26;;;;;;;;;;;16.90;99.90;;;;;;4956606;29;20030;-77
2022/10/21 05:05:52;;;;;;;26.27;5.28;;;16.80;99.90;;;;;;4939500;29;19906;-76
2022/10/21 05:08:18;;;;;;;;;;;16.80;99.90;;;;;;4957031;29;20482;-78
2022/10/21 05:10:44;;;;;;;27.58;5.50;;;16.80;99.90;;;;;;4956344;29;19911;-77
2022/10/21 05:13:10;;;;;;;30.73;6.13;;;16.80;99.90;;;;;;4956409;29;20020;-76
2022/10/21 05:15:36;;;;;;;;;;;16.80;99.90;;;;;;4958009;29;20030;-76
2022/10/21 05:18:02;;;;;;;26.33;4.03;;;16.80;99.90;;;;;;4957289;29;19911;-76
2022/10/21 05:20:28;;;;;;;;;;;16.70;99.90;;;;;;4956795;29;20027;-77
2022/10/21 05:22:53;;;;;;;29.42;5.15;;;16.70;99.90;;;;;;4956112;29;19918;-76
2022/10/21 05:25:19;;;;;;;;;;;16.70;99.90;;;;;;4956368;29;20035;-76
2022/10/21 05:27:45;;;;;;;25.35;4.57;;;16.70;99.90;;;;;;4956196;29;19914;-78
2022/10/21 05:30:12;;;;;;;25.98;4.45;;;16.70;99.90;;;;;;4956145;29;20031;-77
2022/10/21 05:32:38;;;;;;;33.40;5.45;;;16.70;99.90;;;;;;4956299;29;20393;-78
2022/10/21 05:35:05;;;;;;;30.52;6.65;;;16.80;99.90;;;;;;4955615;29;20031;-75
2022/10/21 05:37:31;;;;;;;34.88;6.63;;;16.70;99.90;;;;;;4956038;29;20047;-77
2022/10/21 05:39:57;;;;;;;32.97;5.40;;;16.70;99.90;;;;;;4956598;29;20031;-77
2022/10/21 05:42:23;;;;;;;36.63;6.53;;;16.70;99.90;;;;;;4955976;29;20039;-76
2022/10/21 05:44:48;;;;;;;;;;;16.70;99.90;;;;;;4955590;28;20383;-76
2022/10/21 05:47:14;;;;;;;27.20;5.40;;;16.60;99.90;;;;;;4955602;29;19995;-77
2022/10/21 05:49:40;;;;;;;;;;;16.60;99.90;;;;;;4956264;29;20511;-76
2022/10/21 05:52:05;;;;;;;26.25;4.75;;;16.60;99.90;;;;;;4955775;29;19907;-76
2022/10/21 05:54:31;;;;;;;;;;;16.60;99.90;;;;;;4955724;29;20055;-76
2022/10/21 05:56:57;;;;;;;30.63;5.30;;;16.60;99.90;;;;;;4955711;29;19906;-76
2022/10/21 05:59:24;;;;;;;27.48;5.25;;;16.60;99.90;;;;;;4955736;29;20042;-78
2022/10/21 06:01:50;;;;;;;27.55;5.75;;;16.60;99.90;;;;;;4955565;29;20023;-78
2022/10/21 06:04:16;;;;;;;30.35;5.60;;;16.70;99.90;;;;;;4955479;29;20397;-78
2022/10/21 06:06:41;;;;;;;;;;;16.70;99.90;;;;;;4956000;29;20028;-75
2022/10/21 06:09:07;;;;;;;29.42;4.90;;;16.60;99.90;;;;;;4955399;29;19910;-76
2022/10/21 06:11:33;;;;;;;33.08;5.45;;;16.60;99.90;;;;;;4955503;29;20016;-77
2022/10/21 06:13:58;;;;;;;;;;;16.60;99.90;;;;;;4955636;29;20023;-76
2022/10/21 06:16:24;;;;;;;35.30;4.93;;;16.50;99.90;;;;;;4955501;29;20368;-77
2022/10/21 06:18:50;;;;;;;28.52;5.78;;;16.60;99.90;;;;;;4955307;29;20038;-77
2022/10/21 06:21:15;;;;;;;;;;;16.60;99.90;;;;;;4955732;29;20027;-75
2022/10/21 06:23:41;;;;;;;32.50;4.95;;;16.70;99.90;;;;;;4954717;29;20333;-78
2022/10/21 06:26:11;;;;;;;;;;;16.80;99.90;;;;;;4955676;29;20062;-76
2022/10/21 06:28:38;;;;;;;26.35;5.22;;;16.70;99.90;;;;;;4955175;29;19910;-76
2022/10/21 06:31:06;;;;;;;30.13;4.93;;;16.60;99.90;;;;;;4955116;29;20086;-78
2022/10/21 06:33:32;;;;;;;32.13;5.35;;;16.70;99.90;;;;;;4954929;29;20102;-77
2022/10/21 06:35:57;;;;;;;31.73;6.97;;;16.90;99.90;;;;;;4955037;29;20485;-77
2022/10/21 06:38:24;;;;;;;31.80;6.35;;;16.90;99.90;;;;;;4954878;29;20035;-76
2022/10/21 06:40:51;;;;;;;30.80;5.88;;;17.00;99.90;;;;;;4955576;29;20061;-77
2022/10/21 06:43:17;;;;;;;29.60;5.38;;;17.10;99.90;;;;;;4937826;29;20086;-77
2022/10/21 06:45:43;;;;;;;32.05;5.50;;;17.10;99.90;;;;;;4954429;29;20023;-78
2022/10/21 06:48:09;;;;;;;30.38;5.00;;;17.00;99.90;;;;;;4954824;29;20023;-78
2022/10/21 06:50:38;;;;;;;35.17;5.93;;;16.90;99.90;;;;;;4955015;29;20054;-75
2022/10/21 06:53:04;;;;;;;32.65;6.28;;;16.90;99.90;;;;;;4937576;29;20023;-78
2022/10/21 06:55:31;;;;;;;28.60;5.55;;;17.10;99.90;;;;;;4954469;29;20024;-76
2022/10/21 06:57:58;;;;;;;34.38;5.88;;;17.30;99.90;;;;;;4954042;28;20134;-76
2022/10/21 07:00:24;;;;;;;37.40;7.63;;;17.40;99.90;;;;;;4954543;29;20425;-77
2022/10/21 07:02:49;;;;;;;29.13;5.07;;;17.30;99.90;;;;;;4954793;29;20028;-77
2022/10/21 07:05:15;;;;;;;;;;;17.30;99.90;;;;;;4955048;29;20023;-77
2022/10/21 07:07:41;;;;;;;31.40;5.32;;;17.20;99.90;;;;;;4954669;29;19929;-75
2022/10/21 07:10:06;;;;;;;;;;;17.30;99.90;;;;;;4954991;29;20046;-77
2022/10/21 07:12:32;;;;;;;32.33;5.25;;;17.30;99.90;;;;;;4954748;29;20458;-77
2022/10/21 07:14:58;;;;;;;34.10;7.15;;;17.30;99.90;;;;;;4937006;29;20114;-77
2022/10/21 07:17:24;;;;;;;;;;;17.50;99.90;;;;;;4954985;29;20078;-76
2022/10/21 07:19:49;;;;;;;30.02;5.45;;;17.60;99.90;;;;;;4954654;29;19910;-77
2022/10/21 07:22:16;;;;;;;34.08;7.50;;;17.80;99.90;;;;;;4954353;29;20028;-77
2022/10/21 07:24:42;;;;;;;34.97;5.90;;;17.90;99.90;;;;;;4954011;29;20131;-77
2022/10/21 07:27:08;;;;;;;30.73;5.82;;;17.80;99.90;;;;;;4955076;29;20458;-77
2022/10/21 07:29:35;;;;;;;28.92;6.20;;;17.50;99.90;;;;;;4955066;29;20035;-77
2022/10/21 07:32:01;;;;;;;29.33;6.15;;;17.30;99.90;;;;;;4955156;29;20099;-77
2022/10/21 07:34:26;;;;;;;36.78;5.78;;;17.30;99.90;;;;;;4954813;29;20099;-76
2022/10/21 07:36:52;;;;;;;33.88;5.97;;;17.30;99.90;;;;;;4955372;29;20098;-76
2022/10/21 07:39:22;;;;;;;31.75;5.28;;;17.40;99.90;;;;;;4955762;29;20051;-77
2022/10/21 07:41:51;;;;;;;28.25;6.10;;;17.60;99.90;;;;;;4956067;29;20524;-76
2022/10/21 07:44:18;;;;;;;32.50;6.43;;;17.80;99.90;;;;;;4954721;29;20030;-77
2022/10/21 07:46:46;;;;;;;36.70;9.95;;;18.00;99.90;;;;;;4954566;29;20058;-77
2022/10/21 07:49:13;;;;;;;33.53;6.78;;;18.20;99.90;;;;;;4954866;29;20070;-78
2022/10/21 07:51:41;;;;;;;33.63;6.07;;;18.10;99.90;;;;;;4954939;29;20031;-76
2022/10/21 07:54:07;;;;;;;33.17;5.95;;;18.00;99.90;;;;;;4954346;29;20031;-76
2022/10/21 07:56:42;;;;;;;29.00;5.70;;;18.00;99.90;;;;;;4955057;29;20031;-76
2022/10/21 07:59:09;;;;;;;33.53;6.53;;;17.80;99.90;;;;;;4954842;29;20367;-77
2022/10/21 08:01:35;;;;;;;29.58;6.05;;;17.70;99.90;;;;;;4954838;29;20079;-79
2022/10/21 08:04:01;;;;;;;39.13;6.75;;;17.80;99.90;;;;;;4954287;29;20034;-78
2022/10/21 08:06:27;;;;;;;31.08;6.43;;;18.30;99.90;;;;;;4937461;29;20485;-76
2022/10/21 08:08:56;;;;;;;32.28;5.85;;;18.90;99.90;;;;;;4956596;28;20031;-77
2022/10/21 08:11:30;;;;;;;34.65;7.72;;;19.40;99.90;;;;;;4957968;29;20019;-77
2022/10/21 08:13:57;;;;;;;32.70;8.73;;;19.90;99.90;;;;;;4940506;29;20020;-76
2022/10/21 08:16:23;;;;;;;41.85;12.68;;;19.80;99.90;;;;;;4958215;29;20031;-77
2022/10/21 08:18:50;;;;;;;31.20;6.80;;;19.60;99.90;;;;;;4958083;29;20023;-77
2022/10/21 08:21:15;;;;;;;27.10;7.28;;;19.80;99.90;;;;;;4958080;29;20524;-77
2022/10/21 08:23:42;;;;;;;26.75;6.55;;;20.10;99.90;;;;;;4958069;29;20051;-78
2022/10/21 08:26:11;;;;;;;34.92;7.80;;;19.90;99.90;;;;;;4957690;29;20031;-76
2022/10/21 08:28:36;;;;;;;26.05;5.95;;;19.90;99.90;;;;;;4957895;29;20027;-78
2022/10/21 08:31:11;;;;;;;30.90;6.25;;;19.70;99.90;;;;;;4958037;29;20097;-76
2022/10/21 08:33:37;;;;;;;34.28;5.80;;;19.40;99.90;;;;;;4957709;29;20039;-75
2022/10/21 08:36:08;;;;;;;33.90;6.40;;;19.40;99.90;;;;;;4957323;29;20023;-78
2022/10/21 08:38:34;;;;;;;27.08;5.30;;;19.30;99.90;;;;;;4957824;29;20390;-77
2022/10/21 08:41:00;;;;;;;29.98;5.72;;;19.40;99.90;;;;;;4940721;29;20027;-75
2022/10/21 08:43:30;;;;;;;29.02;6.03;;;19.50;99.90;;;;;;4957756;29;20023;-76
2022/10/21 08:46:02;;;;;;;25.08;5.78;;;19.60;99.90;;;;;;4957000;29;20034;-77
2022/10/21 08:48:36;;;;;;;30.08;6.18;;;19.50;99.90;;;;;;4957564;29;20470;-76
2022/10/21 08:51:05;;;;;;;27.87;5.67;;;19.70;99.90;;;;;;4957426;29;20023;-76
2022/10/21 08:53:40;;;;;;;27.95;6.00;;;19.90;99.90;;;;;;4957324;29;20262;-76
2022/10/21 08:56:11;;;;;;;29.90;7.25;;;20.80;99.90;;;;;;4939882;29;20024;-76
2022/10/21 08:58:37;;;;;;;27.05;7.55;;;21.20;99.90;;;;;;4957330;29;20036;-78
2022/10/21 09:01:22;;;;;;;27.45;7.65;;;22.00;99.90;;;;;;4940299;29;20386;-79
2022/10/21 09:03:56;;;;;;;29.05;6.57;;;22.50;99.90;;;;;;4957438;29;20031;-78
2022/10/21 09:06:54;;;;;;;24.40;5.82;;;22.00;99.90;;;;;;4951727;29;20102;-76
2022/10/21 09:09:32;;;;;;;23.52;5.55;;;22.10;99.90;;;;;;4944229;29;20043;-77
2022/10/21 09:12:25;;;;;;;19.17;5.35;;;23.00;99.90;;;;;;4957353;29;20055;-76
2022/10/21 09:14:59;;;;;;;23.83;5.93;;;23.60;99.60;;;;;;4939442;29;20489;-76
2022/10/21 09:17:46;;;;;;;24.13;5.80;;;23.40;98.90;;;;;;4957011;29;20027;-77
2022/10/21 09:20:18;;;;;;;21.70;5.25;;;24.20;97.90;;;;;;4956377;28;20027;-76
2022/10/21 09:23:28;;;;;;;22.45;5.40;;;22.90;97.90;;;;;;4956388;29;20397;-76
2022/10/21 09:26:01;;;;;;;18.75;5.07;;;23.20;98.80;;;;;;4896932;29;20047;-78
2022/10/21 09:28:29;;;;;;;22.95;5.30;;;23.30;99.10;;;;;;4956816;29;20031;-78
2022/10/21 09:30:59;;;;;;;28.02;5.47;;;22.10;99.50;;;;;;4956528;29;20049;-78
2022/10/21 09:33:28;;;;;;;29.52;5.45;;;21.70;99.90;;;;;;4956512;29;20442;-78
2022/10/21 09:36:17;;;;;;;22.98;4.63;;;21.70;99.90;;;;;;4956512;29;20023;-78
2022/10/21 09:38:59;;;;;;;24.15;4.72;;;22.70;99.00;;;;;;4956815;29;20019;-78
2022/10/21 09:41:40;;;;;;;24.38;5.35;;;22.00;99.90;;;;;;4957175;29;20042;-78
2022/10/21 09:44:09;;;;;;;21.33;4.70;;;22.00;99.90;;;;;;4956930;29;20397;-76
2022/10/21 09:46:35;;;;;;;21.63;4.82;;;23.00;99.90;;;;;;4956176;29;20050;-77
2022/10/21 09:49:01;;;;;;;18.75;4.88;;;24.70;97.20;;;;;;4956625;29;20549;-78
2022/10/21 09:51:37;;;;;;;22.25;5.85;;;24.80;98.00;;;;;;4956250;29;20027;-78
2022/10/21 09:54:16;;;;;;;24.58;5.93;;;25.60;95.30;;;;;;4939022;29;20027;-77
2022/10/21 09:56:49;;;;;;;14.35;4.32;;;25.70;94.20;;;;;;4953079;29;20031;-78
2022/10/21 09:59:18;;;;;;;17.92;5.13;;;26.80;94.50;;;;;;4956268;29;20078;-79
2022/10/21 10:01:44;;;;;;;22.23;5.45;;;27.70;89.80;;;;;;4956708;29;20118;-79
2022/10/21 10:04:27;;;;;;;19.33;4.95;;;26.90;90.00;;;;;;4956365;29;20489;-77
2022/10/21 10:06:53;;;;;;;37.45;16.80;;;25.80;90.40;;;;;;4957956;29;20083;-77
2022/10/21 10:09:33;;;;;;;20.55;6.40;;;24.70;92.30;;;;;;4956662;29;20118;-78
2022/10/21 10:12:11;;;;;;;17.95;4.55;;;23.80;94.70;;;;;;4955963;29;20082;-76
2022/10/21 10:14:43;;;;;;;18.30;4.30;;;24.00;93.70;;;;;;4955831;29;20031;-76
2022/10/21 10:17:27;;;;;;;19.45;4.47;;;23.90;95.10;;;;;;4955945;29;20110;-78
2022/10/21 10:20:16;;;;;;;20.08;4.97;;;23.60;94.00;;;;;;4956333;29;20031;-78
2022/10/21 10:22:58;;;;;;;20.00;6.43;;;23.50;95.00;;;;;;4955714;29;20106;-78
2022/10/21 10:25:30;;;;;;;16.10;4.15;;;23.30;95.10;;;;;;4955661;29;20041;-77
2022/10/21 10:28:15;;;;;;;17.25;4.20;;;24.40;94.00;;;;;;4955749;29;20114;-78
2022/10/21 10:30:41;;;;;;;19.73;4.75;;;23.50;94.20;;;;;;4956012;29;20529;-78
2022/10/21 10:33:22;;;;;;;21.90;4.68;;;24.20;94.10;;;;;;4954785;28;20027;-79
2022/10/21 10:35:51;;;;;;;20.02;4.40;;;25.70;92.10;;;;;;4955342;29;20073;-79
2022/10/21 10:38:50;;;;;;;17.63;4.28;;;29.00;86.10;;;;;;4955731;29;20389;-79
2022/10/21 10:41:17;;;;;;;17.60;4.60;;;26.10;86.00;;;;;;4951586;29;20035;-78
2022/10/21 10:43:47;;;;;;;21.58;4.85;;;24.20;91.30;;;;;;4955445;29;20393;-77
2022/10/21 10:46:34;;;;;;;19.23;4.45;;;23.80;91.80;;;;;;4947628;29;20504;-78
2022/10/21 10:49:21;;;;;;;18.42;4.15;;;24.10;91.20;;;;;;4950851;29;20507;-76
2022/10/21 10:52:09;;;;;;;22.60;4.78;;;23.60;91.30;;;;;;4953147;29;20015;-77
2022/10/21 10:54:36;;;;;;;14.77;3.80;;;23.40;92.70;;;;;;4942549;29;20102;-75
2022/10/21 10:57:03;;;;;;;16.05;4.05;;;23.50;93.30;;;;;;4952229;29;20023;-77
2022/10/21 10:59:32;;;;;;;19.27;4.30;;;24.20;92.00;;;;;;4954633;29;20020;-77
2022/10/21 11:02:11;;;;;;;22.25;4.32;;;23.50;91.70;;;;;;4954596;29;20508;-77
2022/10/21 11:05:06;;;;;;;18.15;4.10;;;23.30;91.50;;;;;;4949374;29;20031;-77
2022/10/21 11:07:43;;;;;;;17.38;3.78;;;22.90;91.80;;;;;;4948393;29;20034;-79
2022/10/21 11:10:27;;;;;;;20.13;4.20;;;23.60;91.00;;;;;;4952825;29;20509;-76
2022/10/21 11:12:53;;;;;;;22.13;5.57;;;23.50;90.10;;;;;;4953383;29;20366;-77
2022/10/21 11:15:39;;;;;;;15.68;3.95;;;23.40;90.90;;;;;;4954236;29;20086;-76
2022/10/21 11:18:27;;;;;;;17.48;3.90;;;23.10;90.80;;;;;;4948442;29;20508;-77
2022/10/21 11:21:02;;;;;;;20.17;4.72;;;22.70;91.10;;;;;;4945359;29;20045;-76
2022/10/21 11:23:49;;;;;;;22.58;5.65;;;21.90;92.70;;;;;;4953984;29;20501;-77
2022/10/21 11:26:27;;;;;;;22.83;4.55;;;;;;;;;;4940420;29;20055;-78
2022/10/21 11:29:19;;;;;;;22.85;5.07;;;21.50;94.60;;;;;;4950082;29;20035;-78
2022/10/21 11:32:09;;;;;;;22.40;4.35;;;21.20;95.30;;;;;;4922111;29;20031;-76
2022/10/21 11:35:12;;;;;;;23.55;6.07;;;21.10;96.30;;;;;;4936278;29;20489;-76
2022/10/21 11:37:53;;;;;;;22.63;4.47;;;21.30;96.60;;;;;;4894756;29;20427;-77
2022/10/21 11:40:45;;;;;;;20.80;5.45;;;21.30;95.50;;;;;;4918691;29;20020;-77
2022/10/21 11:43:35;;;;;;;24.45;5.65;;;21.30;96.30;;;;;;4936705;29;20023;-78
2022/10/21 11:46:36;;;;;;;30.50;11.73;;;21.50;96.20;;;;;;4950225;29;20047;-77
2022/10/21 11:49:19;;;;;;;17.50;4.18;;;22.10;94.80;;;;;;4945630;29;20049;-75
2022/10/21 11:52:09;;;;;;;21.15;4.20;;;22.50;93.20;;;;;;4958740;29;20083;-77
2022/10/21 11:54:47;;;;;;;21.58;6.38;;;21.90;94.00;;;;;;4958631;29;20429;-77
2022/10/21 11:57:22;;;;;;;21.25;4.75;;;21.60;95.10;;;;;;4958313;29;20030;-76
2022/10/21 12:00:12;;;;;;;18.83;4.22;;;21.70;95.00;;;;;;4958652;29;20360;-78
2022/10/21 12:02:56;;;;;;;19.92;5.15;;;22.10;94.20;;;;;;4958547;29;20147;-78
2022/10/21 12:05:26;;;;;;;19.27;3.90;;;22.40;94.10;;;;;;4958293;29;20496;-77
2022/10/21 12:08:15;;;;;;;17.10;4.47;;;25.60;89.60;;;;;;4958423;29;20042;-80
2022/10/21 12:11:05;;;;;;;19.10;4.50;;;28.90;81.10;;;;;;4958201;29;20358;-79
2022/10/21 12:13:33;;;;;;;17.25;4.93;;;;;;;;;;4958343;29;20019;-79
2022/10/21 12:16:11;;;;;;;19.77;4.57;;;29.20;69.60;;;;;;4957891;29;20115;-81
2022/10/21 12:19:03;;;;;;;17.83;4.60;;;28.40;72.80;;;;;;4958217;29;20401;-80
2022/10/21 12:21:34;;;;;;;14.60;4.47;;;29.00;72.70;;;;;;4958024;29;20067;-79
2022/10/21 12:24:23;;;;;;;30.23;6.85;;;29.10;65.30;;;;;;4957929;29;20086;-77
2022/10/21 12:27:01;;;;;;;19.17;6.93;;;28.50;66.40;;;;;;4957798;29;20031;-77
2022/10/21 12:29:48;;;;;;;19.20;5.55;;;27.70;70.60;;;;;;4957845;29;20031;-76
2022/10/21 12:32:20;;;;;;;16.63;5.45;;;27.80;70.60;;;;;;4958076;29;20023;-78
2022/10/21 12:34:46;;;;;;;17.42;4.60;;;30.00;69.90;;;;;;4957660;29;20474;-78
2022/10/21 12:37:42;;;;;;;19.70;6.25;;;27.90;67.80;;;;;;4957628;29;20055;-77
2022/10/21 12:40:32;;;;;;;18.55;5.07;;;25.30;74.10;;;;;;4917752;29;20382;-78
2022/10/21 12:43:04;;;;;;;17.20;4.45;;;24.20;78.00;;;;;;4951202;29;20030;-76
2022/10/21 12:45:36;;;;;;;17.63;4.50;;;23.20;79.80;;;;;;4943506;29;20045;-76
2022/10/21 12:48:24;;;;;;;16.23;3.67;;;22.40;83.10;;;;;;4957568;29;20029;-78
2022/10/21 12:51:04;;;;;;;18.52;4.13;;;22.20;85.90;;;;;;4957892;29;20074;-78
2022/10/21 12:53:40;;;;;;;18.48;3.88;;;22.20;85.80;;;;;;4957256;29;20023;-76
2022/10/21 12:56:08;;;;;;;17.98;3.83;;;22.50;86.50;;;;;;4956211;28;20031;-76
2022/10/21 12:58:45;;;;;;;18.27;3.65;;;23.30;87.20;;;;;;4957178;29;20023;-77
2022/10/21 13:01:49;;;;;;;18.98;3.75;;;24.60;80.80;;;;;;4957254;29;20406;-77
2022/10/21 13:04:33;;;;;;;19.98;4.00;;;23.70;80.10;;;;;;4953265;29;20043;-76
2022/10/21 13:07:12;;;;;;;17.10;3.55;;;23.70;80.70;;;;;;4954814;29;20035;-77
2022/10/21 13:10:01;;;;;;;16.15;3.40;;;23.70;83.00;;;;;;4956551;29;20077;-77
2022/10/21 13:12:31;;;;;;;17.80;4.22;;;23.20;82.00;;;;;;4944389;29;20512;-77
2022/10/21 13:15:21;;;;;;;16.63;4.13;;;22.50;84.20;;;;;;4956666;29;20023;-76
2022/10/21 13:17:53;;;;;;;18.27;4.07;;;22.70;86.50;;;;;;4956649;29;20031;-77